Time;durP1;ratioP1;P1;durP2;ratioP2;P2;SDS_P1;SDS_P2;PMS_P1;PMS_P2;Temp;Humidity;BMP_temperature;BMP_pressure;BME280_temperature;BME280_humidity;BME280_pressure;Samples;Min_cycle;Max_cycle;Signal;HPM_P1;HPM_P2
2023/09/27 00:00:24;;;;;;;16.13;6.17;;;;;;;18.77;39.25;101362.44;128724;1085;101758;-75
2023/09/27 00:03:13;;;;;;;19.77;6.40;;;;;;;18.55;39.50;101358.55;127965;1086;113058;-75
2023/09/27 00:05:41;;;;;;;20.27;7.20;;;;;;;18.40;39.87;101356.51;127555;1086;102181;-76
2023/09/27 00:08:11;;;;;;;17.13;6.60;;;;;;;18.26;40.40;101365.16;128279;1085;101826;-76
2023/09/27 00:10:39;;;;;;;21.33;6.73;;;;;;;18.09;40.15;101371.89;127176;1086;104139;-77
2023/09/27 00:13:08;;;;;;;18.97;7.37;;;;;;;17.95;40.82;101368.97;127549;1086;101871;-76
2023/09/27 00:15:37;;;;;;;20.27;7.10;;;;;;;17.87;40.47;101367.91;128131;1085;102042;-75
2023/09/27 00:18:06;;;;;;;18.47;7.47;;;;;;;17.82;41.16;101367.81;128146;1086;101807;-75
2023/09/27 00:20:35;;;;;;;22.53;7.43;;;;;;;17.72;42.05;101371.17;128878;1085;101817;-76
2023/09/27 00:23:05;;;;;;;20.40;7.43;;;;;;;17.53;42.82;101370.78;128287;1085;104155;-76
2023/09/27 00:25:34;;;;;;;20.80;7.57;;;;;;;17.37;43.40;101369.57;127898;1086;104290;-76
2023/09/27 00:28:03;;;;;;;19.57;7.83;;;;;;;17.23;43.73;101369.27;127281;1086;104155;-76
2023/09/27 00:30:32;;;;;;;18.90;7.87;;;;;;;17.15;44.20;101361.98;127123;1086;102439;-77
2023/09/27 00:33:00;;;;;;;19.90;7.80;;;;;;;17.09;43.63;101353.89;127721;1086;102208;-76
2023/09/27 00:35:29;;;;;;;19.93;7.37;;;;;;;17.08;43.31;101360.96;127872;1086;104409;-76
2023/09/27 00:37:59;;;;;;;20.87;7.83;;;;;;;17.05;44.12;101355.59;128007;1086;102243;-75
2023/09/27 00:40:28;;;;;;;19.90;7.90;;;;;;;17.00;43.89;101359.87;128093;1085;101657;-76
2023/09/27 00:42:57;;;;;;;20.00;7.87;;;;;;;16.97;44.16;101360.72;128530;1086;101736;-76
2023/09/27 00:45:26;;;;;;;22.93;8.13;;;;;;;16.88;44.30;101356.08;127989;1086;102280;-76
2023/09/27 00:47:57;;;;;;;17.80;7.50;;;;;;;16.78;45.14;101356.70;128160;1086;101864;-75
2023/09/27 00:50:25;;;;;;;24.83;7.80;;;;;;;16.67;46.17;101361.75;128270;1086;101748;-76
2023/09/27 00:52:55;;;;;;;18.27;7.50;;;;;;;16.64;45.12;101358.10;128249;1085;101814;-76
2023/09/27 00:55:24;;;;;;;21.83;8.10;;;;;;;16.58;46.22;101357.95;128206;1085;102015;-76
2023/09/27 00:57:54;;;;;;;20.20;8.10;;;;;;;16.49;45.81;101359.52;128346;1086;101858;-76
2023/09/27 01:00:22;;;;;;;21.63;8.50;;;;;;;16.40;47.16;101359.28;128221;1085;101806;-76
2023/09/27 01:02:52;;;;;;;18.97;7.70;;;;;;;16.33;46.89;101367.92;128046;1086;102073;-75
2023/09/27 01:05:21;;;;;;;18.60;7.83;;;;;;;16.26;47.04;101361.58;128034;1085;101918;-76
2023/09/27 01:07:51;;;;;;;21.47;8.10;;;;;;;16.18;47.91;101366.67;127657;1085;101842;-76
2023/09/27 01:10:20;;;;;;;19.40;7.90;;;;;;;16.09;48.20;101357.59;127528;1086;102096;-75
2023/09/27 01:12:48;;;;;;;18.60;8.40;;;;;;;15.97;48.01;101359.06;127479;1086;101903;-75
2023/09/27 01:15:17;;;;;;;18.53;7.90;;;;;;;15.90;48.81;101362.39;127816;1086;101816;-75
2023/09/27 01:17:56;;;;;;;17.80;7.63;;;;;;;15.85;48.47;101363.10;127745;1086;101974;-76
2023/09/27 01:20:25;;;;;;;19.60;8.07;;;;;;;15.80;47.60;101363.00;127766;1086;101787;-75
2023/09/27 01:22:58;;;;;;;26.50;8.90;;;;;;;15.78;47.92;101359.39;127684;1085;104228;-76
2023/09/27 01:25:30;;;;;;;20.03;7.57;;;;;;;15.75;48.31;101359.27;127705;1085;104111;-75
2023/09/27 01:28:00;;;;;;;18.67;7.70;;;;;;;15.73;48.27;101360.99;127869;1086;101804;-75
2023/09/27 01:30:32;;;;;;;21.67;8.50;;;;;;;15.69;49.59;101362.66;127604;1086;101784;-75
2023/09/27 01:33:05;;;;;;;24.03;8.33;;;;;;;15.66;48.97;101365.22;127554;1085;102171;-75
2023/09/27 01:35:34;;;;;;;21.00;7.47;;;;;;;15.61;49.35;101365.09;127599;1086;102037;-75
2023/09/27 01:38:04;;;;;;;16.27;7.60;;;;;;;15.57;50.15;101368.48;127596;1086;104168;-75
2023/09/27 01:40:35;;;;;;;19.23;7.77;;;;;;;15.50;49.04;101366.50;127678;1086;104082;-75
2023/09/27 01:43:05;;;;;;;20.10;8.13;;;;;;;15.45;49.74;101363.72;127539;1086;104191;-76
2023/09/27 01:45:33;;;;;;;21.07;7.93;;;;;;;15.42;49.54;101365.39;127585;1086;104169;-75
2023/09/27 01:48:04;;;;;;;19.83;7.67;;;;;;;15.38;49.72;101364.41;127479;1086;101816;-75
2023/09/27 01:50:34;;;;;;;19.27;7.80;;;;;;;15.35;49.14;101358.11;127836;1085;101880;-75
2023/09/27 01:53:03;;;;;;;21.97;8.00;;;;;;;15.31;50.37;101358.89;127570;1086;104199;-75
2023/09/27 01:55:32;;;;;;;20.47;7.50;;;;;;;15.26;50.80;101361.39;127735;1086;101829;-75
2023/09/27 01:58:01;;;;;;;18.23;7.87;;;;;;;15.23;49.72;101363.95;128149;1086;101861;-75
2023/09/27 02:00:29;;;;;;;24.97;8.20;;;;;;;15.20;49.95;101361.21;127587;1086;102269;-76
2023/09/27 02:02:59;;;;;;;20.70;8.70;;;;;;;15.17;50.83;101362.00;127998;1086;102200;-76
2023/09/27 02:05:30;;;;;;;22.20;8.53;;;;;;;15.18;50.05;101365.56;127992;1084;101795;-75
2023/09/27 02:07:58;;;;;;;18.90;8.17;;;;;;;15.18;49.79;101366.45;128438;1085;104142;-75
2023/09/27 02:10:27;;;;;;;23.73;8.40;;;;;;;15.17;50.08;101369.05;128940;1084;101605;-75
2023/09/27 02:12:56;;;;;;;20.30;8.60;;;;;;;15.16;50.72;101368.16;128695;1085;101852;-76
2023/09/27 02:15:24;;;;;;;21.50;8.17;;;;;;;15.16;50.36;101368.16;128406;1086;101977;-76
2023/09/27 02:17:53;;;;;;;20.67;8.40;;;;;;;15.09;51.20;101372.34;129377;1085;101762;-76
2023/09/27 02:20:23;;;;;;;19.53;8.10;;;;;;;14.99;50.70;101370.27;128218;1084;101771;-75
2023/09/27 02:22:55;;;;;;;17.50;8.10;;;;;;;14.92;51.92;101371.80;128061;1085;101953;-76
2023/09/27 02:25:23;;;;;;;18.50;7.60;;;;;;;14.84;51.74;101365.39;128449;1085;101919;-76
2023/09/27 02:27:52;;;;;;;21.37;8.10;;;;;;;14.80;52.37;101367.88;128480;1085;101790;-76
2023/09/27 02:30:21;;;;;;;18.73;7.73;;;;;;;14.77;52.08;101366.02;127798;1086;101818;-76
2023/09/27 02:32:50;;;;;;;19.37;8.20;;;;;;;14.73;52.93;101372.08;127932;1085;101770;-77
2023/09/27 02:35:19;;;;;;;17.73;7.97;;;;;;;14.71;52.43;101374.67;128320;1086;101790;-75
2023/09/27 02:37:49;;;;;;;24.23;8.77;;;;;;;14.71;52.68;101376.42;128457;1086;101952;-76
2023/09/27 02:40:18;;;;;;;18.53;7.53;;;;;;;14.72;52.24;101371.19;128074;1086;101859;-76
2023/09/27 02:42:48;;;;;;;21.17;8.27;;;;;;;14.71;52.55;101371.14;128969;1085;101722;-77
2023/09/27 02:45:16;;;;;;;20.87;7.80;;;;;;;14.72;52.66;101368.55;128651;1085;101670;-76
2023/09/27 02:47:46;;;;;;;21.60;8.43;;;;;;;14.73;52.41;101369.44;129072;1085;101551;-77
2023/09/27 02:50:15;;;;;;;19.63;8.03;;;;;;;14.73;52.01;101361.51;128435;1086;102002;-76
2023/09/27 02:52:44;;;;;;;21.97;8.33;;;;;;;14.73;52.37;101362.39;129020;1085;101774;-76
2023/09/27 02:55:13;;;;;;;21.83;8.10;;;;;;;14.78;51.82;101372.23;129151;1085;101672;-76
2023/09/27 02:57:47;;;;;;;21.20;8.47;;;;;;;14.80;51.52;101365.23;128450;1086;104162;-76
2023/09/27 03:00:18;;;;;;;18.73;7.83;;;;;;;14.80;51.52;101365.23;128730;1085;101675;-76
2023/09/27 03:02:47;;;;;;;18.10;7.87;;;;;;;14.78;51.95;101364.30;128809;1085;101778;-75
2023/09/27 03:05:17;;;;;;;19.70;7.73;;;;;;;14.76;51.78;101369.53;128671;1086;101389;-76
2023/09/27 03:07:46;;;;;;;16.83;7.87;;;;;;;14.74;51.81;101369.48;128465;1086;101661;-75
2023/09/27 03:10:15;;;;;;;19.90;7.90;;;;;;;14.72;51.62;101367.62;128826;1086;101640;-76
2023/09/27 03:12:48;;;;;;;17.47;7.63;;;;;;;14.70;53.05;101369.33;128744;1085;101676;-76
2023/09/27 03:15:17;;;;;;;19.33;8.13;;;;;;;14.64;52.73;101369.13;128055;1085;102254;-75
2023/09/27 03:17:47;;;;;;;18.63;7.70;;;;;;;14.62;53.00;101366.44;127963;1086;102009;-76
2023/09/27 03:20:16;;;;;;;18.03;7.67;;;;;;;14.57;53.41;101368.01;128036;1086;102092;-76
2023/09/27 03:22:45;;;;;;;21.77;7.80;;;;;;;14.55;53.48;101364.39;127984;1085;103338;-76
2023/09/27 03:25:17;;;;;;;18.40;7.57;;;;;;;14.53;52.88;101366.09;128015;1086;101877;-76
2023/09/27 03:27:46;;;;;;;19.40;7.87;;;;;;;14.52;53.05;101369.58;128504;1085;101821;-76
2023/09/27 03:30:14;;;;;;;21.73;7.93;;;;;;;14.50;52.43;101366.00;128023;1086;102198;-76
2023/09/27 03:32:44;;;;;;;19.00;7.73;;;;;;;14.46;52.78;101359.73;128189;1086;101800;-76
2023/09/27 03:35:14;;;;;;;22.43;8.63;;;;;;;14.46;53.19;101365.01;128383;1086;102011;-75
2023/09/27 03:37:44;;;;;;;18.77;8.47;;;;;;;14.46;52.50;101367.65;128152;1086;101793;-76
2023/09/27 03:40:13;;;;;;;21.33;8.23;;;;;;;14.45;52.55;101370.23;127260;1086;104098;-77
2023/09/27 03:42:44;;;;;;;19.13;7.60;;;;;;;14.42;52.94;101371.02;127311;1086;102114;-77
2023/09/27 03:45:14;;;;;;;22.33;8.90;;;;;;;14.37;52.93;101362.94;128391;1086;101902;-75
2023/09/27 03:47:44;;;;;;;17.13;7.60;;;;;;;14.33;53.91;101368.95;128337;1086;104231;-75
2023/09/27 03:50:14;;;;;;;21.80;8.90;;;;;;;14.29;53.61;101368.79;128750;1085;101669;-76
2023/09/27 03:52:44;;;;;;;20.30;8.57;;;;;;;14.23;53.76;101366.86;128894;1085;101808;-76
2023/09/27 03:55:13;;;;;;;20.60;8.13;;;;;;;14.19;53.96;101368.50;128486;1086;101959;-75
2023/09/27 03:57:42;;;;;;;21.53;8.30;;;;;;;14.15;54.18;101371.87;127314;1086;102092;-75
2023/09/27 04:00:14;;;;;;;19.33;7.97;;;;;;;14.12;54.39;101373.52;127071;1085;102056;-75
2023/09/27 04:02:44;;;;;;;18.37;8.00;;;;;;;14.09;54.44;101370.77;127147;1086;104181;-76
2023/09/27 04:05:14;;;;;;;22.03;8.30;;;;;;;14.07;54.67;101380.34;126807;1086;104149;-77
2023/09/27 04:07:43;;;;;;;22.30;8.93;;;;;;;14.05;55.43;101382.05;126957;1086;104264;-77
2023/09/27 04:10:12;;;;;;;19.47;8.40;;;;;;;14.01;55.93;101379.30;126853;1086;104171;-77
2023/09/27 04:12:40;;;;;;;19.80;8.50;;;;;;;13.97;55.36;101382.66;126845;1086;102002;-78
2023/09/27 04:15:11;;;;;;;18.43;8.53;;;;;;;13.95;55.27;101386.11;126745;1086;104151;-77
2023/09/27 04:17:40;;;;;;;21.57;9.00;;;;;;;13.93;55.21;101382.49;126912;1086;102111;-77
2023/09/27 04:20:16;;;;;;;19.83;8.20;;;;;;;13.90;55.53;101388.58;126949;1086;102044;-77
2023/09/27 04:22:47;;;;;;;20.10;8.30;;;;;;;13.90;54.99;101387.66;127417;1086;101804;-77
2023/09/27 04:25:17;;;;;;;24.23;9.20;;;;;;;13.91;55.99;101385.07;128122;1086;101726;-78
2023/09/27 04:27:47;;;;;;;25.03;8.27;;;;;;;13.94;55.74;101394.85;127593;1086;101829;-77
2023/09/27 04:30:18;;;;;;;21.70;8.57;;;;;;;13.93;56.12;101391.33;127321;1086;102082;-78
2023/09/27 04:32:50;;;;;;;23.30;8.80;;;;;;;13.93;55.81;101393.97;127385;1086;102002;-78
2023/09/27 04:35:20;;;;;;;19.30;8.07;;;;;;;13.98;56.24;101394.13;127081;1086;101902;-78
2023/09/27 04:37:49;;;;;;;18.43;8.63;;;;;;;14.02;56.12;101399.58;126799;1086;104159;-77
2023/09/27 04:40:17;;;;;;;19.67;8.73;;;;;;;14.07;56.36;101399.74;126605;1086;104274;-77
2023/09/27 04:42:47;;;;;;;23.80;8.80;;;;;;;14.17;55.27;101399.20;126920;1086;104159;-77
2023/09/27 04:45:16;;;;;;;21.77;8.93;;;;;;;14.26;56.17;101398.64;126694;1086;104350;-77
2023/09/27 04:47:45;;;;;;;24.23;9.00;;;;;;;14.37;55.58;101393.73;127841;1086;102016;-77
2023/09/27 04:50:15;;;;;;;20.63;8.53;;;;;;;14.49;56.12;101401.16;127550;1086;102070;-77
2023/09/27 04:52:43;;;;;;;23.50;9.53;;;;;;;14.58;55.91;101404.11;127982;1086;101781;-76
2023/09/27 04:55:13;;;;;;;24.53;9.03;;;;;;;14.69;55.42;101404.52;128516;1085;102258;-79
2023/09/27 04:57:41;;;;;;;22.93;9.47;;;;;;;14.78;56.01;101396.00;128678;1086;104172;-78
2023/09/27 05:00:18;;;;;;;22.17;8.80;;;;;;;14.83;56.07;101403.22;127299;1086;102026;-77
2023/09/27 05:02:47;;;;;;;20.00;8.97;;;;;;;14.89;56.08;101403.41;127994;1085;102008;-75
2023/09/27 05:05:16;;;;;;;23.80;8.80;;;;;;;14.93;55.99;101401.79;126839;1086;102069;-76
2023/09/27 05:07:45;;;;;;;23.80;8.97;;;;;;;14.98;55.65;101401.94;126344;1086;104417;-76
2023/09/27 05:10:14;;;;;;;20.80;8.80;;;;;;;15.03;55.16;101405.62;126489;1086;102028;-76
2023/09/27 05:12:42;;;;;;;21.47;9.00;;;;;;;15.12;55.89;101411.20;126515;1086;104566;-77
2023/09/27 05:15:11;;;;;;;20.57;8.60;;;;;;;15.20;55.85;101412.33;129135;1084;101758;-77
2023/09/27 05:17:41;;;;;;;20.33;9.03;;;;;;;15.30;55.41;101402.92;127761;1085;101682;-76
2023/09/27 05:20:10;;;;;;;23.83;8.73;;;;;;;15.40;54.80;101401.48;127105;1086;104231;-75
2023/09/27 05:22:39;;;;;;;18.30;7.27;;;;;;;15.52;55.33;101403.58;127720;1086;101833;-76
2023/09/27 05:25:13;;;;;;;23.87;9.23;;;;;;;15.61;55.42;101409.14;128208;1085;104152;-79
2023/09/27 05:27:42;;;;;;;22.27;8.43;;;;;;;15.70;55.29;101401.48;127849;1085;104152;-74
2023/09/27 05:30:12;;;;;;;20.83;8.03;;;;;;;15.79;55.10;101401.78;126567;1086;101816;-76
2023/09/27 05:32:43;;;;;;;19.63;7.80;;;;;;;15.86;54.86;101405.48;126314;1086;104162;-74
2023/09/27 05:35:16;;;;;;;25.97;8.30;;;;;;;15.91;54.07;101408.27;128802;1085;101848;-76
2023/09/27 05:37:46;;;;;;;22.03;8.33;;;;;;;15.95;54.88;101402.22;126867;1086;102299;-77
2023/09/27 05:40:19;;;;;;;23.70;8.25;;;;;;;16.01;54.55;101402.39;127702;1086;102060;-76
2023/09/27 05:42:48;;;;;;;24.70;8.95;;;;;;;16.06;53.92;101407.81;126611;1086;104269;-73
2023/09/27 05:45:17;;;;;;;22.27;8.63;;;;;;;16.13;53.81;101396.55;126642;1086;104286;-78
2023/09/27 05:47:46;;;;;;;23.07;8.40;;;;;;;16.21;54.17;101400.29;129088;1085;104037;-76
2023/09/27 05:50:15;;;;;;;23.80;8.27;;;;;;;16.29;53.62;101397.84;127518;1086;104146;-77
2023/09/27 05:52:47;;;;;;;26.67;9.30;;;;;;;16.38;53.73;101399.83;129251;1085;101480;-75
2023/09/27 05:55:16;;;;;;;24.13;8.73;;;;;;;16.47;53.77;101400.98;126704;1086;101839;-73
2023/09/27 05:57:49;;;;;;;20.03;8.50;;;;;;;16.57;53.70;101407.41;127566;1086;102107;-74
2023/09/27 06:00:26;;;;;;;22.03;8.20;;;;;;;16.67;53.84;101397.92;126562;1086;109377;-77
2023/09/27 06:02:59;;;;;;;22.47;8.37;;;;;;;16.77;53.69;101401.73;128625;1085;102131;-81
2023/09/27 06:05:32;;;;;;;23.07;8.50;;;;;;;16.87;53.35;101401.11;127421;1085;104177;-80
2023/09/27 06:08:05;;;;;;;23.63;7.93;;;;;;;16.96;53.20;101414.58;126860;1086;104238;-81
2023/09/27 06:10:37;;;;;;;21.93;8.77;;;;;;;17.05;53.59;101403.31;126736;1086;118386;-79
2023/09/27 06:13:10;;;;;;;20.37;8.20;;;;;;;17.15;52.99;101399.11;127850;1086;102014;-80
2023/09/27 06:15:42;;;;;;;25.50;8.60;;;;;;;17.23;53.13;101401.09;126885;1086;101867;-81
2023/09/27 06:18:14;;;;;;;19.87;8.07;;;;;;;17.31;53.06;101397.70;127250;1086;103596;-78
2023/09/27 06:20:47;;;;;;;24.00;9.03;;;;;;;17.40;52.70;101400.55;129045;1085;101106;-77
2023/09/27 06:23:19;;;;;;;21.50;8.50;;;;;;;17.49;52.81;101400.76;128406;1086;101852;-77
2023/09/27 06:25:51;;;;;;;20.70;9.63;;;;;;;17.57;52.74;101409.77;126865;1086;104255;-75
2023/09/27 06:28:21;;;;;;;25.57;9.30;;;;;;;17.61;52.46;101398.37;128151;1089;101622;-78
2023/09/27 06:30:50;;;;;;;24.20;8.73;;;;;;;17.78;52.30;101412.00;126585;1086;104220;-79
2023/09/27 06:33:19;;;;;;;25.17;9.23;;;;;;;17.89;51.91;101404.28;126938;1085;104197;-78
2023/09/27 06:35:52;;;;;;;22.80;8.90;;;;;;;18.01;52.17;101400.95;127504;1086;104153;-76
2023/09/27 06:38:21;;;;;;;25.00;8.27;;;;;;;18.14;52.10;101402.11;128651;1085;102144;-77
2023/09/27 06:40:51;;;;;;;29.97;8.73;;;;;;;18.26;51.89;101396.11;127256;1086;102040;-78
2023/09/27 06:43:20;;;;;;;26.50;8.67;;;;;;;18.40;51.67;101407.00;126616;1086;101928;-78
2023/09/27 06:45:52;;;;;;;25.00;9.37;;;;;;;18.52;51.86;101395.70;128075;1086;101834;-79
2023/09/27 06:48:24;;;;;;;28.73;9.30;;;;;;;18.65;51.89;101405.66;128823;1085;102284;-78
2023/09/27 06:50:56;;;;;;;22.83;8.70;;;;;;;18.77;51.63;101399.66;127148;1085;104370;-77
2023/09/27 06:53:26;;;;;;;21.80;7.63;;;;;;;18.90;51.62;101399.03;128050;1085;104191;-79
2023/09/27 06:55:56;;;;;;;25.80;9.80;;;;;;;19.07;51.69;101403.70;126928;1086;102443;-80
2023/09/27 07:01:30;;;;;;;26.33;8.80;;;;;;;19.45;51.00;101408.70;128350;1085;101908;-76
2023/09/27 07:03:59;;;;;;;23.27;9.23;;;;;;;19.63;50.37;101406.25;128838;1085;101751;-75
2023/09/27 07:06:33;;;;;;;21.53;8.70;;;;;;;19.78;50.18;101412.70;128144;1086;101768;-76
2023/09/27 07:09:12;;;;;;;23.53;8.13;;;;;;;19.95;50.70;101408.45;127168;1086;104147;-75
2023/09/27 07:11:48;;;;;;;27.20;8.83;;;;;;;20.17;50.18;101408.70;127832;1086;101841;-77
2023/09/27 07:14:20;;;;;;;21.17;8.67;;;;;;;20.34;49.28;101408.88;128178;1085;101802;-77
2023/09/27 07:16:57;;;;;;;30.07;8.20;;;;;;;20.50;49.75;101401.91;126711;1086;101909;-77
2023/09/27 07:19:35;;;;;;;26.20;8.67;;;;;;;20.63;49.04;101396.70;127481;1086;101981;-78
2023/09/27 07:22:10;;;;;;;25.83;9.03;;;;;;;20.80;49.70;101398.63;127691;1085;102634;-75
2023/09/27 07:24:39;;;;;;;22.60;8.77;;;;;;;20.91;48.18;101390.71;126740;1086;104225;-74
2023/09/27 07:27:12;;;;;;;26.40;9.23;;;;;;;21.01;48.58;101389.91;128149;1087;103107;-77
2023/09/27 07:29:50;;;;;;;24.80;8.83;;;;;;;21.15;48.62;101401.56;128762;1085;101664;-81
2023/09/27 07:32:21;;;;;;;30.93;9.60;;;;;;;21.25;47.70;101396.28;127034;1086;104203;-81
2023/09/27 07:34:52;;;;;;;22.77;8.67;;;;;;;21.33;47.58;101395.45;127928;1085;102006;-76
2023/09/27 07:37:23;;;;;;;23.63;8.70;;;;;;;21.47;47.22;101394.61;127705;1086;101810;-77
2023/09/27 07:39:52;;;;;;;24.53;8.97;;;;;;;21.64;46.27;101387.59;126938;1086;101991;-79
2023/09/27 07:42:23;;;;;;;22.23;8.77;;;;;;;21.81;46.51;101401.02;128630;1085;102700;-78
2023/09/27 07:44:52;;;;;;;23.00;8.73;;;;;;;21.98;46.01;101401.08;127967;1085;104225;-76
2023/09/27 07:47:21;;;;;;;23.77;9.23;;;;;;;22.08;45.11;101389.53;127958;1085;101896;-77
2023/09/27 07:49:50;;;;;;;19.20;8.03;;;;;;;22.23;44.67;101393.12;127610;1086;104203;-79
2023/09/27 07:52:19;;;;;;;20.43;8.03;;;;;;;22.37;45.49;101388.70;127258;1085;102008;-76
2023/09/27 07:55:10;;;;;;;17.70;7.90;;;;;;;22.42;45.19;101383.37;127773;1086;102055;-78
2023/09/27 07:57:49;;;;;;;20.60;8.07;;;;;;;22.52;44.50;101390.52;128365;1085;101651;-81
2023/09/27 08:00:28;;;;;;;21.40;8.63;;;;;;;22.64;44.79;101381.62;127302;1086;102142;-76
2023/09/27 08:02:59;;;;;;;18.10;7.83;;;;;;;22.78;44.05;101377.14;127318;1085;104260;-78
2023/09/27 08:05:43;;;;;;;17.30;7.50;;;;;;;22.95;43.69;101377.13;126119;1086;104210;-79
2023/09/27 08:08:15;;;;;;;20.77;8.03;;;;;;;23.08;43.06;101375.34;126079;1086;101893;-78
2023/09/27 08:10:49;;;;;;;18.33;7.73;;;;;;;23.22;43.53;101377.98;126901;1086;102152;-79
2023/09/27 08:13:19;;;;;;;18.90;7.97;;;;;;;23.32;42.77;101379.72;126757;1086;104156;-81
2023/09/27 08:15:52;;;;;;;20.83;7.93;;;;;;;23.44;43.24;101381.48;126573;1086;104143;-82
2023/09/27 08:18:25;;;;;;;24.90;8.57;;;;;;;23.53;43.23;101379.66;127731;1086;104182;-82
2023/09/27 08:21:05;;;;;;;19.43;7.93;;;;;;;23.60;41.81;101374.27;127339;1086;101986;-82
2023/09/27 08:23:38;;;;;;;20.57;8.30;;;;;;;23.72;42.35;101375.10;127475;1086;102143;-79
2023/09/27 08:26:12;;;;;;;14.60;7.17;;;;;;;23.79;42.21;101372.38;128558;1085;101760;-81
2023/09/27 08:28:43;;;;;;;19.60;8.07;;;;;;;23.91;41.79;101374.16;126865;1086;102079;-78
2023/09/27 08:31:20;;;;;;;14.87;7.50;;;;;;;24.02;41.72;101376.77;128085;1089;101851;-77
2023/09/27 08:33:53;;;;;;;15.73;7.50;;;;;;;24.15;41.94;101373.13;126648;1086;104242;-79
2023/09/27 08:36:25;;;;;;;15.70;7.67;;;;;;;24.24;41.69;101372.16;128261;1085;101691;-78
2023/09/27 08:38:55;;;;;;;21.87;8.27;;;;;;;24.33;41.42;101363.16;127988;1085;104152;-82
2023/09/27 08:41:30;;;;;;;17.55;7.65;;;;;;;24.46;41.30;101362.14;128138;1086;101800;-77
2023/09/27 08:44:00;;;;;;;17.07;7.83;;;;;;;24.58;41.43;101355.83;127478;1086;102318;-78
2023/09/27 08:46:36;;;;;;;17.03;7.60;;;;;;;24.64;39.75;101355.78;126931;1086;102108;-80
2023/09/27 08:49:18;;;;;;;18.83;8.03;;;;;;;24.78;40.55;101347.60;126696;1086;104228;-80
2023/09/27 08:51:59;;;;;;;20.77;8.17;;;;;;;24.90;40.38;101344.80;127104;1086;104229;-82
2023/09/27 08:54:35;;;;;;;19.60;7.97;;;;;;;24.99;39.86;101341.11;127335;1085;104248;-77
2023/09/27 08:57:10;;;;;;;19.50;7.90;;;;;;;25.08;39.47;101343.69;127840;1086;104194;-79
2023/09/27 08:59:44;;;;;;;20.20;8.03;;;;;;;25.12;38.67;101345.45;127441;1086;102022;-80
2023/09/27 09:02:16;;;;;;;15.37;7.17;;;;;;;25.09;37.64;101348.16;127278;1087;101835;-78
2023/09/27 09:04:51;;;;;;;17.53;8.03;;;;;;;25.12;38.25;101342.77;126745;1086;104228;-79
2023/09/27 09:07:20;;;;;;;16.43;7.70;;;;;;;25.18;38.09;101343.59;126412;1089;104213;-78
2023/09/27 09:09:49;;;;;;;22.17;7.67;;;;;;;25.28;38.69;101342.59;128256;1085;102107;-78
2023/09/27 09:12:17;;;;;;;18.63;8.00;;;;;;;25.38;38.31;101346.95;126060;1086;101928;-78
2023/09/27 09:14:54;;;;;;;17.50;7.50;;;;;;;25.53;38.28;101348.57;126394;1086;104184;-77
2023/09/27 09:17:34;;;;;;;16.07;6.97;;;;;;;25.60;38.09;101347.59;126203;1086;104197;-76
2023/09/27 09:20:17;;;;;;;22.63;8.33;;;;;;;25.69;37.65;101345.68;127928;1086;104197;-74
2023/09/27 09:22:46;;;;;;;19.07;8.00;;;;;;;25.79;37.72;101334.78;127915;1086;104178;-76
2023/09/27 09:25:16;;;;;;;16.57;7.70;;;;;;;25.89;37.63;101334.65;126140;1086;102420;-77
2023/09/27 09:28:02;;;;;;;16.23;7.03;;;;;;;25.97;37.10;101327.34;128071;1085;101771;-78
2023/09/27 09:30:57;;;;;;;18.53;7.47;;;;;;;26.10;37.36;101325.39;128727;1085;101502;-77
2023/09/27 09:33:28;;;;;;;;;;;;;;;26.23;37.59;101324.29;127120;1086;101841;-79
2023/09/27 09:36:17;;;;;;;17.37;7.43;;;;;;;26.31;37.36;101318.78;126592;1086;101904;-77
2023/09/27 09:39:03;;;;;;;18.63;7.47;;;;;;;26.42;37.00;101316.79;126796;1086;104197;-78
2023/09/27 09:41:45;;;;;;;15.20;6.70;;;;;;;26.49;36.74;101309.48;128247;1086;104336;-78
2023/09/27 09:44:21;;;;;;;15.13;6.73;;;;;;;26.53;35.63;101313.91;129139;1085;101124;-77
2023/09/27 09:46:57;;;;;;;12.60;6.73;;;;;;;26.55;36.26;101301.31;128126;1086;101458;-76
2023/09/27 09:49:31;;;;;;;16.63;5.67;;;;;;;26.63;35.25;101303.86;127130;1085;102211;-76
2023/09/27 09:52:04;;;;;;;14.90;5.90;;;;;;;26.61;33.63;101292.25;127368;1086;102357;-77
2023/09/27 09:54:46;;;;;;;12.03;6.23;;;;;;;26.74;34.34;101299.23;127515;1086;101832;-79
2023/09/27 09:57:19;;;;;;;11.70;5.93;;;;;;;26.78;34.27;101295.53;128121;1086;101872;-81
2023/09/27 10:00:11;;;;;;;11.60;5.77;;;;;;;26.84;32.89;101302.63;127064;1085;101969;-76
2023/09/27 10:02:52;;;;;;;13.77;6.17;;;;;;;26.88;33.81;101283.69;126564;1086;101919;-77
2023/09/27 10:05:35;;;;;;;12.33;6.57;;;;;;;26.98;33.13;101283.50;126415;1086;104238;-78
2023/09/27 10:08:10;;;;;;;15.10;6.10;;;;;;;27.10;33.34;101291.34;127586;1086;104306;-78
2023/09/27 10:10:40;;;;;;;11.97;5.80;;;;;;;27.10;31.85;101288.64;127837;1086;102101;-78
2023/09/27 10:13:18;;;;;;;12.78;6.10;;;;;;;27.11;32.13;101302.98;126252;1086;101877;-78
2023/09/27 10:15:49;;;;;;;12.90;6.10;;;;;;;27.13;32.83;101302.05;127668;1086;104222;-79
2023/09/27 10:18:36;;;;;;;14.77;6.20;;;;;;;27.11;32.36;101293.09;128417;1086;102102;-80
2023/09/27 10:21:12;;;;;;;15.63;6.33;;;;;;;27.12;32.35;101291.30;129010;1086;101432;-80
2023/09/27 10:24:02;;;;;;;14.83;6.83;;;;;;;27.20;32.05;101286.63;126756;1087;103350;-79
2023/09/27 10:26:37;;;;;;;12.00;5.73;;;;;;;27.23;32.25;101283.88;127948;1086;102071;-76
2023/09/27 10:32:28;;;;;;;12.60;6.20;;;;;;;27.41;31.86;101275.43;127476;1086;101898;-78
2023/09/27 10:35:17;;;;;;;15.90;6.47;;;;;;;27.43;31.06;101270.88;126656;1086;102444;-80
2023/09/27 10:37:59;;;;;;;12.00;6.20;;;;;;;27.49;31.71;101272.57;128008;1085;101810;-79
2023/09/27 10:40:55;;;;;;;13.73;5.70;;;;;;;27.43;30.64;101270.01;128241;1086;101838;-78
2023/09/27 10:43:54;;;;;;;8.03;5.43;;;;;;;27.50;31.55;101260.84;128145;1086;101776;-75
2023/09/27 10:47:03;;;;;;;12.47;5.70;;;;;;;27.55;30.97;101250.87;126322;1086;104159;-77
2023/09/27 10:49:48;;;;;;;12.30;5.73;;;;;;;27.62;30.55;101274.05;126330;1089;101913;-75
2023/09/27 10:52:27;;;;;;;14.67;6.10;;;;;;;27.63;30.87;101264.17;126045;1086;104154;-77
2023/09/27 10:55:10;;;;;;;13.30;5.50;;;;;;;27.67;31.00;101251.50;126547;1086;104264;-78
2023/09/27 10:57:43;;;;;;;14.17;6.03;;;;;;;27.74;31.07;101245.05;127782;1086;118113;-75
2023/09/27 11:00:18;;;;;;;9.63;5.80;;;;;;;27.79;31.32;101243.11;126250;1086;104165;-75
2023/09/27 11:02:50;;;;;;;12.40;5.20;;;;;;;27.77;30.69;101234.19;127607;1085;104066;-76
2023/09/27 11:05:30;;;;;;;12.50;5.37;;;;;;;27.80;30.33;101242.20;127728;1086;104200;-73
2023/09/27 11:08:02;;;;;;;9.93;5.30;;;;;;;27.86;30.55;101233.05;127062;1086;102049;-74
2023/09/27 11:10:36;;;;;;;12.87;5.03;;;;;;;27.83;30.31;101244.83;126308;1086;104178;-74
2023/09/27 11:13:10;;;;;;;11.47;5.60;;;;;;;27.79;30.31;101237.72;126602;1086;104225;-74
2023/09/27 11:15:53;;;;;;;12.60;5.50;;;;;;;27.82;30.39;101237.65;127222;1086;102095;-76
2023/09/27 11:18:24;;;;;;;12.75;5.60;;;;;;;27.85;30.26;101232.18;127786;1085;110814;-79
2023/09/27 11:21:13;;;;;;;12.50;5.92;;;;;;;27.89;30.14;101228.50;128899;1085;101871;-78
2023/09/27 11:24:12;;;;;;;11.50;5.67;;;;;;;27.94;30.26;101237.34;128100;1086;101833;-78
2023/09/27 11:26:59;;;;;;;13.57;4.87;;;;;;;27.85;28.98;101236.70;127696;1089;104076;-76
2023/09/27 11:29:36;;;;;;;14.43;5.73;;;;;;;27.91;29.25;101225.76;128072;1086;101651;-77
2023/09/27 11:32:07;;;;;;;15.37;5.10;;;;;;;27.95;29.77;101233.73;126607;1086;101926;-76